Hovedside
METAR-TAF:

METAR-TAF

Lufthavner :

Kufra, Libya

breddegrad: 24-13N, lengdegrad: 023-18E, høyde over havet: 417 m

METAR: fraværende

Tid: 23:35 (21:35 UTC)

Varsel

Denne rapporten ble laget for 22 timer og 35 minutter siden, klokken 23:00 UTC
Varsel gyldig fra 28. klokken 00 UTC til 28. klokken 24 UTC
Vind 2 kt fra skiftende retning
Sikt: 8000 m
Blir
fra 28. klokken 10 UTC til 28. klokken 12 UTC
Blir
fra 28. klokken 18 UTC til 28. klokken 20 UTC
Vind 2 kt fra skiftende retning

TAF: HLKF 272300Z 2800/2824 VRB02KT 8000 NSC BECMG 2810/2812 09010K BECMG 2818/2820 VRB02KT

Værobservasjoner og værvarsel for over 4000 flyplasser (METAR- og TAF-rapporter).

Tilgjengelige stasjoner er representert av de røde og gule prikkene på kartet.

Hold musepekeren over prikken for å se navnet på stasjonen.

Klikk så for å se værobservasjoner og -varsler.

For å forandre kartet kan du klikke på den grønne knappen med svart kryss for å zoome inn, på den grønne knappen med strek for å zoome ut, eller på de grønne pilene for å se tilstøtende kart.


METAR-TAF: